LFLYLFMD

Guest
Details From LFLY - Lyon Bron
To LFMD - Mandelieu
Flight Number -
Tags generated
Created
Modified
Stats Distance 158 nm / 292 km
Max Altitude 19,200 ft / 5,852 m
Waypoints 3
Social Downloads 0
Likes 0
Share VATSIM

Download

Looking for another format? Having issues loading an existing format? Contact us
Advertisement - Login to hide

Notes

Basic altitude profile: - Ascent Rate: 2500ft/min - Ascent Speed: 250kts - Cruise Altitude: 35000ft - Cruise Speed: 420kts - Descent Rate: 1500ft/min - Descent Speed: 250kts Options: - Use NATs: yes - Use PACOTS: yes - Use low airways: no - Use high airways: yes

Route

LFLY NEDRU LFMD

ID Type Via Altitude Latitude Longitude Leg Dist Tot Dist Heading (true) Name
O LFLY APT - 0 ft / 0 m 45.72717˚ 4.94427˚ - 0 nm - Lyon Bron
NEDRU FIX - 19,200 ft / 5,852 m 45.07583˚ 5.81917˚ 53 nm 53 nm 136° / 137° -
O LFMD APT - 0 ft / 0 m 43.54673˚ 6.95310˚ 103 nm 157 nm 152° / 152° Mandelieu

Altitude Profile

Advertisement - Login to hide

LFLY

Details ICAO LFLY (LYN)
Name Lyon Bron
Region France
Timezone Europe/Paris (UTC+2.0)
Stats Elevation 659 ft / 201 m (AMSL)
Location 45.727171° 4.944274°
Runways 1
Magnetic Variation 1.504° E

METAR

LFLY 270330Z AUTO 00000KT 9999 FEW033/// BKN120/// OVC170/// ///TCU 20/15 Q1017 BECMG NSC

Decode

TAF

TAF AMD LFLY 270035Z 2700/2724 16005KT CAVOK TEMPO 2700/2703 4000 TSRA BKN050CB TEMPO 2715/2724 4000 SHRA SCT050TCU PROB40 TEMPO 2716/2721 VRB15G40KT 2500 TSRA SCT050CB

Decode

Departure Runways

ID Width Length Bearing (true) Bearing (mag) Surface Threshold Offset Overrun Length
16 148 ft / 45 m 5,972 ft / 1,820 m 163.44° 161.94° Asphalt 984 ft / 300 m 0 ft / 0 m
34 148 ft / 45 m 5,972 ft / 1,820 m 343.44° 341.94° Asphalt 984 ft / 300 m 0 ft / 0 m

LFMD

Details ICAO LFMD (CEQ)
Name Mandelieu
Region France
Timezone Europe/Paris (UTC+2.0)
Stats Elevation 12 ft / 4 m (AMSL)
Location 43.546734° 6.953097°
Runways 3
Magnetic Variation 2.007° E

METAR

LFMD 270330Z AUTO VRB02KT CAVOK 18/14 Q1016 TEMPO SCT110CB BKN130

Decode

TAF

TAF LFMD 270200Z 2703/2803 06010KT CAVOK TEMPO 2703/2710 SCT110CB BKN130 BECMG 2710/2711 06015KT FEW040 BKN130 PROB30 TEMPO 2710/2803 SCT110CB BKN130

Decode

Destination Runways

ID Width Length Bearing (true) Bearing (mag) Surface Threshold Offset Overrun Length
05 98 ft / 30 m 2,430 ft / 741 m 45.28° 43.27° Asphalt 295 ft / 90 m 0 ft / 0 m
17 148 ft / 45 m 5,287 ft / 1,611 m 172.58° 170.57° Asphalt 689 ft / 210 m 0 ft / 0 m
17L 164 ft / 50 m 1,872 ft / 571 m 172.60° 170.59° Grass 0 ft / 0 m 0 ft / 0 m
23 98 ft / 30 m 2,430 ft / 741 m 225.28° 223.27° Asphalt 98 ft / 30 m 0 ft / 0 m
35 148 ft / 45 m 5,287 ft / 1,611 m 352.58° 350.57° Asphalt 1,148 ft / 350 m 0 ft / 0 m
35R 164 ft / 50 m 1,872 ft / 571 m 352.60° 350.59° Grass 0 ft / 0 m 0 ft / 0 m

Approach Navaids

Runway Type Ident Frequency Range Bearing (true) Bearing (mag) Slope Elevation
35 Localiser CMD 110.35 MHz 18 nm / 33 km 347.58° 345.58° - 12 ft / 4 m (AMSL)

Popular Alternatives